createdAt,value
2022-12-27T00:00:08.454Z,99684.00
2022-12-27T00:02:38.489Z,99703.00
2022-12-27T00:05:09.013Z,99715.00
2022-12-27T00:07:37.141Z,99711.00
2022-12-27T00:10:06.481Z,99702.00
2022-12-27T00:12:33.816Z,99705.00
2022-12-27T00:15:01.033Z,99686.00
2022-12-27T00:17:28.505Z,99693.00
2022-12-27T00:19:55.580Z,99700.00
2022-12-27T00:22:22.785Z,99714.00
2022-12-27T00:24:49.755Z,99703.00
2022-12-27T00:27:16.719Z,99714.00
2022-12-27T00:29:44.824Z,99709.00
2022-12-27T00:32:11.932Z,99711.00
2022-12-27T00:34:39.009Z,99714.00
2022-12-27T00:37:05.885Z,99717.00
2022-12-27T00:39:32.784Z,99717.00
2022-12-27T00:41:59.660Z,99716.00
2022-12-27T00:44:26.518Z,99735.00
2022-12-27T00:46:53.454Z,99749.00
2022-12-27T00:49:20.310Z,99750.00
2022-12-27T00:51:47.203Z,99742.00
2022-12-27T00:54:14.086Z,99747.00
2022-12-27T00:56:40.932Z,99752.00
2022-12-27T00:59:08.314Z,99732.00
2022-12-27T01:01:36.900Z,99749.00
2022-12-27T01:04:05.082Z,99754.00
2022-12-27T01:06:34.752Z,99759.00
2022-12-27T01:09:03.852Z,99769.00
2022-12-27T01:11:31.037Z,99772.00
2022-12-27T01:14:01.794Z,99771.00
2022-12-27T01:16:31.448Z,99777.00
2022-12-27T01:19:01.681Z,99773.00
2022-12-27T01:21:30.973Z,99778.00
2022-12-27T01:23:58.594Z,99770.00
2022-12-27T01:26:26.169Z,99776.00
2022-12-27T01:28:54.644Z,99779.00
2022-12-27T01:31:27.636Z,99792.00
2022-12-27T01:33:57.733Z,99797.00
2022-12-27T01:36:27.088Z,99792.00
2022-12-27T01:38:54.255Z,99797.00
2022-12-27T01:41:46.062Z,99788.00
2022-12-27T01:44:39.381Z,99788.00
2022-12-27T01:47:14.484Z,99794.00
2022-12-27T01:49:53.275Z,99768.00
2022-12-27T01:52:22.691Z,99798.00
2022-12-27T01:54:49.735Z,99773.00
2022-12-27T01:57:16.877Z,99708.00
2022-12-27T01:59:43.982Z,99797.00
2022-12-27T02:02:11.055Z,99790.00
2022-12-27T02:04:38.684Z,99794.00
2022-12-27T02:07:06.052Z,99792.00
2022-12-27T02:09:59.192Z,99781.00
2022-12-27T02:12:27.118Z,99787.00
2022-12-27T02:14:54.035Z,99803.00
2022-12-27T02:17:29.275Z,99802.00
2022-12-27T02:20:03.641Z,99797.00
2022-12-27T02:23:39.621Z,99802.00
2022-12-27T02:26:44.803Z,99803.00
2022-12-27T02:29:45.157Z,99804.00
2022-12-27T02:32:57.324Z,99803.00
2022-12-27T02:35:36.568Z,99804.00
2022-12-27T02:38:18.511Z,99813.00
2022-12-27T02:41:06.318Z,99818.00
2022-12-27T02:43:51.745Z,99824.00
2022-12-27T02:46:48.247Z,99826.00
2022-12-27T02:49:47.749Z,99829.00
2022-12-27T02:53:11.283Z,99826.00
2022-12-27T02:56:33.876Z,99839.00
2022-12-27T02:59:28.131Z,99825.00
2022-12-27T03:03:02.026Z,99846.00
2022-12-27T03:06:11.518Z,99842.00
2022-12-27T03:09:50.617Z,99847.00
2022-12-27T03:12:45.604Z,99842.00
2022-12-27T03:15:56.241Z,99848.00
2022-12-27T03:18:41.094Z,99850.00
2022-12-27T03:21:27.898Z,99839.00
2022-12-27T03:24:16.940Z,99856.00
2022-12-27T03:26:51.169Z,99855.00
2022-12-27T03:43:21.636Z,99885.00
2022-12-27T03:46:31.634Z,99881.00
2022-12-27T03:49:36.269Z,99878.00
2022-12-27T03:52:20.113Z,99889.00
2022-12-27T03:54:51.053Z,99883.00
2022-12-27T03:57:27.834Z,99888.00
2022-12-27T03:59:55.398Z,99890.00
2022-12-27T04:02:22.449Z,99888.00
2022-12-27T04:04:50.220Z,99897.00
2022-12-27T04:07:17.163Z,99909.00
2022-12-27T04:10:02.371Z,99902.00
2022-12-27T04:12:47.756Z,99909.00
2022-12-27T04:15:33.108Z,99905.00
2022-12-27T04:18:18.665Z,99910.00
2022-12-27T04:21:04.022Z,99912.00
2022-12-27T04:23:49.445Z,99916.00
2022-12-27T04:26:34.738Z,99918.00
2022-12-27T04:29:20.197Z,99925.00
2022-12-27T04:32:05.744Z,99917.00
2022-12-27T04:34:42.554Z,99940.00
2022-12-27T04:37:17.022Z,99926.00
2022-12-27T04:40:08.995Z,99928.00
2022-12-27T04:42:54.518Z,99934.00
2022-12-27T04:45:40.979Z,99934.00
2022-12-27T04:48:32.017Z,99939.00
2022-12-27T04:51:18.707Z,99916.00
2022-12-27T04:54:04.176Z,99937.00
2022-12-27T04:56:31.157Z,99938.00
2022-12-27T04:59:16.720Z,99928.00
2022-12-27T05:02:02.413Z,99936.00
2022-12-27T05:04:35.394Z,99920.00
2022-12-27T05:07:22.940Z,99930.00
2022-12-27T05:10:08.761Z,99932.00
2022-12-27T05:12:54.198Z,99943.00
2022-12-27T05:15:21.123Z,99950.00
2022-12-27T05:17:48.078Z,99947.00
2022-12-27T05:20:14.956Z,99955.00
2022-12-27T05:23:00.407Z,99962.00
2022-12-27T05:25:39.899Z,99958.00
2022-12-27T05:28:10.487Z,99965.00
2022-12-27T05:30:40.966Z,99970.00
2022-12-27T05:33:11.282Z,99966.00
2022-12-27T05:35:38.285Z,99974.00
2022-12-27T05:38:05.740Z,99982.00
2022-12-27T05:40:34.849Z,99946.00
2022-12-27T05:43:04.114Z,99979.00
2022-12-27T05:45:32.458Z,99969.00
2022-12-27T05:48:00.083Z,99966.00
2022-12-27T05:50:27.549Z,99969.00
2022-12-27T05:52:56.055Z,99941.00
2022-12-27T05:55:23.189Z,99972.00
2022-12-27T05:57:49.990Z,99978.00
2022-12-27T06:00:17.218Z,99985.00
2022-12-27T06:02:44.237Z,99971.00
2022-12-27T06:05:11.469Z,99993.00
2022-12-27T06:07:39.403Z,99998.00
2022-12-27T06:10:09.152Z,100001.00
2022-12-27T06:12:36.281Z,99996.00
2022-12-27T06:15:05.334Z,99989.00
2022-12-27T06:17:33.272Z,99970.00
2022-12-27T06:20:00.125Z,100005.00
2022-12-27T06:22:26.975Z,100000.00
2022-12-27T06:24:53.838Z,99998.00
2022-12-27T06:27:20.683Z,100004.00
2022-12-27T06:29:47.485Z,100011.00
2022-12-27T06:32:17.687Z,100012.00
2022-12-27T06:34:45.466Z,100005.00
2022-12-27T06:37:12.421Z,99998.00
2022-12-27T06:39:39.289Z,100007.00
2022-12-27T06:42:06.161Z,100003.00
2022-12-27T06:44:33.104Z,100017.00
2022-12-27T06:46:59.945Z,100026.00
2022-12-27T06:49:26.910Z,100020.00
2022-12-27T06:51:59.358Z,100037.00
2022-12-27T06:54:26.942Z,100039.00
2022-12-27T06:56:53.866Z,100045.00
2022-12-27T06:59:20.672Z,100038.00
2022-12-27T07:01:47.777Z,100037.00
2022-12-27T07:04:14.812Z,100059.00
2022-12-27T07:06:41.663Z,100045.00
2022-12-27T07:09:08.927Z,100052.00
2022-12-27T07:11:37.555Z,100060.00
2022-12-27T07:14:09.696Z,100047.00
2022-12-27T07:16:37.520Z,100060.00
2022-12-27T07:19:04.722Z,100074.00
2022-12-27T07:21:31.654Z,100078.00
2022-12-27T07:23:58.565Z,100068.00
2022-12-27T07:26:30.114Z,100074.00
2022-12-27T07:29:00.760Z,100076.00
2022-12-27T07:31:31.256Z,100084.00
2022-12-27T07:34:01.397Z,100092.00
2022-12-27T07:36:48.551Z,100096.00
2022-12-27T07:39:15.408Z,100096.00
2022-12-27T07:41:42.329Z,100104.00
2022-12-27T07:44:11.661Z,100101.00
2022-12-27T07:46:38.563Z,100104.00
2022-12-27T07:49:05.448Z,100113.00
2022-12-27T07:51:32.907Z,100115.00
2022-12-27T07:53:59.954Z,100102.00
2022-12-27T07:56:28.812Z,100105.00
2022-12-27T07:59:01.426Z,100106.00
2022-12-27T08:14:09.421Z,100114.00
2022-12-27T08:16:36.308Z,100117.00
2022-12-27T08:19:08.204Z,100116.00
2022-12-27T08:21:35.433Z,100121.00
2022-12-27T08:24:02.291Z,100110.00
2022-12-27T08:26:29.198Z,100127.00
2022-12-27T08:28:56.084Z,100133.00
2022-12-27T08:31:23.134Z,100111.00
2022-12-27T08:33:56.530Z,100119.00
2022-12-27T08:39:12.170Z,100119.00
2022-12-27T08:41:39.291Z,100116.00
2022-12-27T08:44:06.461Z,100118.00
2022-12-27T08:46:33.559Z,100115.00
2022-12-27T08:49:00.907Z,100121.00
2022-12-27T08:51:35.780Z,100117.00
2022-12-27T08:54:05.907Z,100114.00
2022-12-27T08:56:33.057Z,100114.00
2022-12-27T08:59:00.126Z,100102.00
2022-12-27T09:01:27.408Z,100106.00
2022-12-27T09:03:54.622Z,100113.00
2022-12-27T09:06:24.411Z,100117.00
2022-12-27T09:08:52.207Z,100093.00
2022-12-27T09:11:22.999Z,100133.00
2022-12-27T09:13:50.639Z,100112.00
2022-12-27T09:16:23.124Z,100124.00
2022-12-27T09:18:53.372Z,100127.00
2022-12-27T09:21:23.734Z,100101.00
2022-12-27T09:23:51.599Z,100126.00
2022-12-27T09:26:21.164Z,100119.00
2022-12-27T09:28:49.890Z,100123.00
2022-12-27T09:31:19.449Z,100124.00
2022-12-27T09:33:46.426Z,100124.00
2022-12-27T09:36:17.443Z,100086.00
2022-12-27T09:38:45.792Z,100125.00
2022-12-27T09:42:45.048Z,100133.00
2022-12-27T09:44:51.629Z,100138.00
2022-12-27T09:47:29.839Z,100137.00
2022-12-27T09:50:24.691Z,100140.00
2022-12-27T09:52:57.321Z,100145.00
2022-12-27T09:55:43.605Z,100143.00
2022-12-27T09:58:28.979Z,100135.00
2022-12-27T10:00:55.890Z,100137.00
2022-12-27T10:03:27.717Z,100140.00
2022-12-27T10:06:40.317Z,100134.00
2022-12-27T10:09:34.195Z,100138.00
2022-12-27T10:12:51.355Z,100120.00
2022-12-27T10:16:03.759Z,100138.00
2022-12-27T10:18:49.875Z,100137.00
2022-12-27T10:21:34.384Z,100124.00
2022-12-27T10:24:17.459Z,100134.00
2022-12-27T10:26:44.788Z,100120.00
2022-12-27T10:29:27.047Z,100151.00
2022-12-27T10:31:54.202Z,100119.00
2022-12-27T10:34:24.742Z,100150.00
2022-12-27T10:36:56.078Z,100151.00
2022-12-27T10:39:33.251Z,100137.00
2022-12-27T10:42:11.823Z,100146.00
2022-12-27T10:44:40.258Z,100137.00
2022-12-27T10:47:10.786Z,100136.00
2022-12-27T10:49:42.577Z,100133.00
2022-12-27T10:52:23.360Z,100141.00
2022-12-27T10:54:58.091Z,100144.00
2022-12-27T10:57:35.014Z,100147.00
2022-12-27T11:00:18.103Z,100158.00
2022-12-27T11:03:00.797Z,100152.00
2022-12-27T11:05:33.520Z,100148.00
2022-12-27T11:08:18.515Z,100161.00
2022-12-27T11:10:45.343Z,100147.00
2022-12-27T11:13:19.205Z,100147.00
2022-12-27T11:15:58.944Z,100149.00
2022-12-27T11:18:26.609Z,100135.00
2022-12-27T11:20:57.180Z,100154.00
2022-12-27T11:23:32.189Z,100174.00
2022-12-27T11:26:06.305Z,100173.00
2022-12-27T11:28:44.199Z,100159.00
2022-12-27T11:31:19.044Z,100146.00
2022-12-27T11:33:52.993Z,100155.00
2022-12-27T11:36:36.583Z,100164.00
2022-12-27T11:39:04.900Z,100137.00
2022-12-27T11:41:38.207Z,100159.00
2022-12-27T11:44:29.595Z,100159.00
2022-12-27T11:47:33.049Z,100163.00
2022-12-27T11:50:26.723Z,100160.00
2022-12-27T11:53:12.118Z,100168.00
2022-12-27T11:56:09.532Z,100160.00
2022-12-27T11:58:51.112Z,100175.00
2022-12-27T12:01:51.967Z,100184.00
2022-12-27T12:04:56.135Z,100178.00
2022-12-27T12:08:01.152Z,100175.00
2022-12-27T12:10:46.158Z,100168.00
2022-12-27T12:13:37.871Z,100175.00
2022-12-27T12:16:40.625Z,100172.00
2022-12-27T12:19:59.292Z,100174.00
2022-12-27T12:22:49.684Z,100162.00
2022-12-27T12:25:54.985Z,100175.00
2022-12-27T12:29:04.156Z,100163.00
2022-12-27T12:31:51.961Z,100170.00
2022-12-27T12:34:45.976Z,100181.00
2022-12-27T12:37:27.771Z,100179.00
2022-12-27T12:40:25.767Z,100178.00
2022-12-27T12:43:11.093Z,100187.00
2022-12-27T12:46:12.272Z,100196.00
2022-12-27T12:48:57.745Z,100196.00
2022-12-27T12:51:49.878Z,100194.00
2022-12-27T12:54:58.332Z,100198.00
2022-12-27T12:58:16.338Z,100196.00
2022-12-27T13:01:08.840Z,100200.00
2022-12-27T13:03:39.076Z,100206.00
2022-12-27T13:06:36.320Z,100206.00
2022-12-27T13:09:31.571Z,100205.00
2022-12-27T13:12:20.999Z,100201.00
2022-12-27T13:15:05.805Z,100201.00
2022-12-27T13:17:53.918Z,100211.00
2022-12-27T13:20:42.893Z,100207.00
2022-12-27T13:36:15.492Z,100213.00
2022-12-27T13:38:52.418Z,100218.00
2022-12-27T13:41:56.504Z,100225.00
2022-12-27T13:45:03.853Z,100232.00
2022-12-27T13:48:18.978Z,100213.00
2022-12-27T13:51:04.773Z,100226.00
2022-12-27T13:54:07.057Z,100226.00
2022-12-27T13:56:54.866Z,100232.00
2022-12-27T13:59:30.894Z,100229.00
2022-12-27T14:02:10.442Z,100215.00
2022-12-27T14:05:28.191Z,100224.00
2022-12-27T14:07:59.599Z,100234.00
2022-12-27T14:11:00.703Z,100229.00
2022-12-27T14:13:36.602Z,100225.00
2022-12-27T14:16:33.137Z,100235.00
2022-12-27T14:19:47.671Z,100236.00
2022-12-27T14:22:24.802Z,100236.00
2022-12-27T14:25:19.352Z,100253.00
2022-12-27T14:28:24.216Z,100256.00
2022-12-27T14:31:18.056Z,100261.00
2022-12-27T14:34:37.591Z,100254.00
2022-12-27T14:37:28.480Z,100260.00
2022-12-27T14:40:35.117Z,100266.00
2022-12-27T14:43:41.994Z,100269.00
2022-12-27T14:46:30.354Z,100272.00
2022-12-27T14:49:00.225Z,100276.00
2022-12-27T14:52:02.374Z,100291.00
2022-12-27T14:55:05.362Z,100288.00
2022-12-27T14:58:28.281Z,100295.00
2022-12-27T15:01:27.710Z,100293.00
2022-12-27T15:04:24.941Z,100290.00
2022-12-27T15:07:12.974Z,100293.00
2022-12-27T15:09:57.766Z,100305.00
2022-12-27T15:12:38.412Z,100307.00
2022-12-27T15:15:47.090Z,100330.00
2022-12-27T15:18:58.334Z,100316.00
2022-12-27T15:22:39.615Z,100320.00
2022-12-27T15:25:56.072Z,100324.00
2022-12-27T15:28:34.283Z,100319.00
2022-12-27T15:31:34.472Z,100332.00
2022-12-27T15:34:48.322Z,100332.00
2022-12-27T15:37:53.390Z,100330.00
2022-12-27T15:40:36.115Z,100333.00
2022-12-27T15:43:51.147Z,100341.00
2022-12-27T15:47:08.592Z,100359.00
2022-12-27T15:49:54.636Z,100351.00
2022-12-27T15:53:00.080Z,100359.00
2022-12-27T15:56:00.426Z,100370.00
2022-12-27T15:58:29.218Z,100274.00
2022-12-27T16:01:25.463Z,100376.00
2022-12-27T16:03:55.150Z,100379.00
2022-12-27T16:06:34.297Z,100388.00
2022-12-27T16:09:26.228Z,100393.00
2022-12-27T16:12:31.228Z,100382.00
2022-12-27T16:15:51.015Z,100390.00
2022-12-27T16:18:24.030Z,100385.00
2022-12-27T16:21:11.891Z,100383.00
2022-12-27T16:23:47.428Z,100390.00
2022-12-27T16:26:35.833Z,100400.00
2022-12-27T16:29:16.646Z,100407.00
2022-12-27T16:31:51.010Z,100398.00
2022-12-27T16:34:31.321Z,100413.00
2022-12-27T16:37:03.543Z,100416.00
2022-12-27T16:39:59.519Z,100409.00
2022-12-27T16:42:55.130Z,100423.00
2022-12-27T16:45:59.266Z,100426.00
2022-12-27T16:49:05.223Z,100430.00
2022-12-27T16:52:00.704Z,100427.00
2022-12-27T16:55:22.561Z,100433.00
2022-12-27T16:57:51.900Z,100415.00
2022-12-27T17:00:37.056Z,100425.00
2022-12-27T17:03:22.669Z,100439.00
2022-12-27T17:06:30.043Z,100436.00
2022-12-27T17:08:39.469Z,100446.00
2022-12-27T17:11:26.936Z,100442.00
2022-12-27T17:14:25.870Z,100441.00
2022-12-27T17:17:15.893Z,100449.00
2022-12-27T17:19:56.833Z,100469.00
2022-12-27T17:22:32.317Z,100461.00
2022-12-27T17:25:03.934Z,100453.00
2022-12-27T17:28:01.238Z,100453.00
2022-12-27T17:30:58.198Z,100459.00
2022-12-27T17:33:48.611Z,100456.00
2022-12-27T17:37:12.060Z,100453.00
2022-12-27T17:40:34.151Z,100451.00
2022-12-27T17:44:02.280Z,100445.00
2022-12-27T17:46:49.602Z,100456.00
2022-12-27T17:49:25.274Z,100450.00
2022-12-27T17:52:11.530Z,100443.00
2022-12-27T17:54:57.428Z,100456.00
2022-12-27T17:57:42.935Z,100454.00
2022-12-27T18:00:25.060Z,100462.00
2022-12-27T18:02:56.806Z,100468.00
2022-12-27T18:05:31.136Z,100468.00
2022-12-27T18:08:29.044Z,100467.00
2022-12-27T18:11:00.856Z,100474.00
2022-12-27T18:13:35.577Z,100466.00
2022-12-27T18:16:19.856Z,100474.00
2022-12-27T18:18:51.843Z,100469.00
2022-12-27T18:21:32.187Z,100439.00
2022-12-27T18:24:00.040Z,100469.00
2022-12-27T18:26:42.024Z,100461.00
2022-12-27T18:29:22.872Z,100468.00
2022-12-27T18:31:55.713Z,100467.00
2022-12-27T18:46:01.569Z,100493.00
2022-12-27T18:48:47.127Z,100501.00
2022-12-27T18:51:18.543Z,100488.00
2022-12-27T18:53:46.109Z,100487.00
2022-12-27T18:56:16.062Z,100486.00
2022-12-27T18:59:05.831Z,100497.00
2022-12-27T19:01:45.613Z,100482.00
2022-12-27T19:04:16.574Z,100493.00
2022-12-27T19:07:11.822Z,100491.00
2022-12-27T19:09:50.674Z,100499.00
2022-12-27T19:12:34.083Z,100486.00
2022-12-27T19:15:04.510Z,100496.00
2022-12-27T19:17:32.897Z,100489.00
2022-12-27T19:20:07.945Z,100473.00
2022-12-27T19:22:37.001Z,100495.00
2022-12-27T19:25:30.150Z,100504.00
2022-12-27T19:28:10.776Z,100512.00
2022-12-27T19:31:03.157Z,100507.00
2022-12-27T19:33:34.650Z,100490.00
2022-12-27T19:36:06.850Z,100521.00
2022-12-27T19:38:34.580Z,100523.00
2022-12-27T19:41:04.437Z,100542.00
2022-12-27T19:43:40.113Z,100542.00
2022-12-27T19:46:07.249Z,100546.00
2022-12-27T19:48:34.286Z,100549.00
2022-12-27T19:51:01.365Z,100547.00
2022-12-27T19:53:39.642Z,100547.00
2022-12-27T19:56:10.820Z,100543.00
2022-12-27T19:58:38.054Z,100555.00
2022-12-27T20:01:05.261Z,100563.00
2022-12-27T20:03:32.487Z,100555.00
2022-12-27T20:06:14.688Z,100558.00
2022-12-27T20:08:50.499Z,100555.00
2022-12-27T20:11:23.997Z,100565.00
2022-12-27T20:13:51.126Z,100557.00
2022-12-27T20:16:20.097Z,100575.00
2022-12-27T20:18:47.828Z,100568.00
2022-12-27T20:21:20.289Z,100567.00
2022-12-27T20:23:48.439Z,100574.00
2022-12-27T20:26:23.542Z,100569.00
2022-12-27T20:28:51.949Z,100568.00
2022-12-27T20:31:21.767Z,100581.00
2022-12-27T20:33:53.703Z,100574.00
2022-12-27T20:36:22.190Z,100564.00
2022-12-27T20:38:49.226Z,100559.00
2022-12-27T20:41:20.275Z,100576.00
2022-12-27T20:43:47.590Z,100579.00
2022-12-27T20:46:17.863Z,100578.00
2022-12-27T20:48:46.887Z,100571.00
2022-12-27T20:51:18.095Z,100569.00
2022-12-27T20:53:46.876Z,100571.00
2022-12-27T20:56:14.081Z,100580.00
2022-12-27T20:58:41.208Z,100581.00
2022-12-27T21:01:15.705Z,100586.00
2022-12-27T21:03:43.859Z,100580.00
2022-12-27T21:06:14.793Z,100591.00
2022-12-27T21:08:47.884Z,100574.00
2022-12-27T21:11:31.268Z,100595.00
2022-12-27T21:13:59.912Z,100580.00
2022-12-27T21:16:29.611Z,100583.00
2022-12-27T21:18:57.555Z,100582.00
2022-12-27T21:21:28.239Z,100587.00
2022-12-27T21:23:57.665Z,100582.00
2022-12-27T21:26:29.384Z,100570.00
2022-12-27T21:28:57.961Z,100578.00
2022-12-27T21:31:25.584Z,100579.00
2022-12-27T21:33:52.575Z,100579.00
2022-12-27T21:36:26.301Z,100571.00
2022-12-27T21:38:54.787Z,100579.00
2022-12-27T21:41:24.942Z,100589.00
2022-12-27T21:43:53.015Z,100570.00
2022-12-27T21:46:19.852Z,100576.00
2022-12-27T21:48:47.859Z,100566.00
2022-12-27T21:51:18.501Z,100590.00
2022-12-27T21:53:46.067Z,100587.00
2022-12-27T21:56:15.644Z,100594.00
2022-12-27T21:58:44.374Z,100599.00
2022-12-27T22:01:14.432Z,100599.00
2022-12-27T22:03:44.508Z,100610.00
2022-12-27T22:06:21.258Z,100590.00
2022-12-27T22:08:52.086Z,100606.00
2022-12-27T22:11:21.986Z,100600.00
2022-12-27T22:13:49.695Z,100602.00
2022-12-27T22:16:24.150Z,100603.00
2022-12-27T22:18:51.994Z,100589.00
2022-12-27T22:21:29.305Z,100611.00
2022-12-27T22:23:59.246Z,100612.00
2022-12-27T22:26:33.441Z,100617.00
2022-12-27T22:29:00.362Z,100617.00
2022-12-27T22:31:35.115Z,100625.00
2022-12-27T22:34:03.572Z,100534.00
2022-12-27T22:36:30.638Z,100622.00
2022-12-27T22:38:59.472Z,100618.00
2022-12-27T22:41:35.040Z,100607.00
2022-12-27T22:44:13.563Z,100618.00
2022-12-27T22:47:15.662Z,100608.00
2022-12-27T22:49:29.387Z,100612.00
2022-12-27T22:51:56.218Z,100617.00
2022-12-27T22:55:03.348Z,100611.00
2022-12-27T22:57:09.877Z,100604.00
2022-12-27T22:59:36.707Z,100607.00
2022-12-27T23:02:03.675Z,100601.00
2022-12-27T23:04:30.814Z,100599.00
2022-12-27T23:07:01.571Z,100606.00
2022-12-27T23:09:29.302Z,100600.00
2022-12-27T23:11:56.495Z,100601.00
2022-12-27T23:14:23.586Z,100600.00
2022-12-27T23:16:51.030Z,100599.00
2022-12-27T23:19:22.117Z,100595.00
2022-12-27T23:21:49.082Z,100600.00
2022-12-27T23:24:16.389Z,100599.00
2022-12-27T23:26:43.298Z,100594.00
2022-12-27T23:29:14.896Z,100591.00
2022-12-27T23:31:54.894Z,100602.00
2022-12-27T23:34:27.625Z,100603.00
2022-12-27T23:36:59.484Z,100606.00
2022-12-27T23:39:26.670Z,100606.00
2022-12-27T23:41:53.824Z,100599.00
2022-12-27T23:44:33.211Z,100603.00
2022-12-27T23:47:05.653Z,100599.00
2022-12-27T23:49:33.178Z,100564.00
2022-12-27T23:52:00.079Z,100597.00
2022-12-27T23:54:26.949Z,100607.00
2022-12-27T23:56:53.836Z,100594.00
2022-12-27T23:59:20.951Z,100594.00
